sensor_id;sensor_type;location;lat;lon;timestamp;temperature;humidity
2623;DHT22;1321;48.690;9.022;2023-07-20T00:01:21;21.60;93.80
2623;DHT22;1321;48.690;9.022;2023-07-20T00:03:50;21.60;93.30
2623;DHT22;1321;48.690;9.022;2023-07-20T00:06:22;21.60;93.40
2623;DHT22;1321;48.690;9.022;2023-07-20T00:08:52;21.50;92.70
2623;DHT22;1321;48.690;9.022;2023-07-20T00:11:20;21.50;92.60
2623;DHT22;1321;48.690;9.022;2023-07-20T00:13:50;21.50;92.60
2623;DHT22;1321;48.690;9.022;2023-07-20T00:16:18;21.40;91.90
2623;DHT22;1321;48.690;9.022;2023-07-20T00:18:47;21.50;99.10
2623;DHT22;1321;48.690;9.022;2023-07-20T00:21:15;21.40;90.20
2623;DHT22;1321;48.690;9.022;2023-07-20T00:23:43;21.40;89.20
2623;DHT22;1321;48.690;9.022;2023-07-20T00:26:11;21.40;89.00
2623;DHT22;1321;48.690;9.022;2023-07-20T00:28:40;21.40;87.00
2623;DHT22;1321;48.690;9.022;2023-07-20T00:31:09;21.40;86.40
2623;DHT22;1321;48.690;9.022;2023-07-20T00:33:38;21.30;86.00
2623;DHT22;1321;48.690;9.022;2023-07-20T00:36:06;21.30;85.40
2623;DHT22;1321;48.690;9.022;2023-07-20T00:38:34;21.30;84.20
2623;DHT22;1321;48.690;9.022;2023-07-20T00:41:03;21.20;83.00
2623;DHT22;1321;48.690;9.022;2023-07-20T00:43:31;21.20;83.20
2623;DHT22;1321;48.690;9.022;2023-07-20T00:45:59;21.10;81.70
2623;DHT22;1321;48.690;9.022;2023-07-20T00:48:31;21.20;82.50
2623;DHT22;1321;48.690;9.022;2023-07-20T00:51:00;21.10;83.40
2623;DHT22;1321;48.690;9.022;2023-07-20T00:53:30;21.10;82.50
2623;DHT22;1321;48.690;9.022;2023-07-20T00:55:58;21.10;82.40
2623;DHT22;1321;48.690;9.022;2023-07-20T00:58:26;21.00;82.20
2623;DHT22;1321;48.690;9.022;2023-07-20T01:00:55;21.10;83.00
2623;DHT22;1321;48.690;9.022;2023-07-20T01:03:23;21.00;81.90
2623;DHT22;1321;48.690;9.022;2023-07-20T01:05:58;21.00;80.50
2623;DHT22;1321;48.690;9.022;2023-07-20T01:08:33;20.90;81.40
2623;DHT22;1321;48.690;9.022;2023-07-20T01:11:10;20.90;79.60
2623;DHT22;1321;48.690;9.022;2023-07-20T01:13:41;20.90;79.30
2623;DHT22;1321;48.690;9.022;2023-07-20T01:16:11;20.90;80.50
2623;DHT22;1321;48.690;9.022;2023-07-20T01:18:39;20.90;79.70
2623;DHT22;1321;48.690;9.022;2023-07-20T01:21:16;20.80;78.60
2623;DHT22;1321;48.690;9.022;2023-07-20T01:27:15;20.70;77.90
2623;DHT22;1321;48.690;9.022;2023-07-20T01:30:00;20.70;78.10
2623;DHT22;1321;48.690;9.022;2023-07-20T01:32:33;20.70;76.30
2623;DHT22;1321;48.690;9.022;2023-07-20T01:35:05;20.70;76.60
2623;DHT22;1321;48.690;9.022;2023-07-20T01:37:34;20.70;76.50
2623;DHT22;1321;48.690;9.022;2023-07-20T01:40:03;20.70;76.20
2623;DHT22;1321;48.690;9.022;2023-07-20T01:42:32;20.70;76.30
2623;DHT22;1321;48.690;9.022;2023-07-20T01:45:00;20.60;75.50
2623;DHT22;1321;48.690;9.022;2023-07-20T01:47:28;20.60;76.30
2623;DHT22;1321;48.690;9.022;2023-07-20T01:49:58;20.60;76.10
2623;DHT22;1321;48.690;9.022;2023-07-20T01:52:26;20.50;76.70
2623;DHT22;1321;48.690;9.022;2023-07-20T01:54:56;20.60;78.50
2623;DHT22;1321;48.690;9.022;2023-07-20T01:57:24;20.50;76.50
2623;DHT22;1321;48.690;9.022;2023-07-20T01:59:52;20.50;75.60
2623;DHT22;1321;48.690;9.022;2023-07-20T02:02:22;20.50;76.10
2623;DHT22;1321;48.690;9.022;2023-07-20T02:04:51;20.40;75.30
2623;DHT22;1321;48.690;9.022;2023-07-20T02:07:21;20.40;75.30
2623;DHT22;1321;48.690;9.022;2023-07-20T02:09:49;20.30;92.00
2623;DHT22;1321;48.690;9.022;2023-07-20T02:12:17;20.30;75.90
2623;DHT22;1321;48.690;9.022;2023-07-20T02:14:45;20.30;76.70
2623;DHT22;1321;48.690;9.022;2023-07-20T02:17:14;20.30;76.30
2623;DHT22;1321;48.690;9.022;2023-07-20T02:19:42;20.20;75.60
2623;DHT22;1321;48.690;9.022;2023-07-20T02:22:11;20.20;74.50
2623;DHT22;1321;48.690;9.022;2023-07-20T02:24:40;20.20;75.60
2623;DHT22;1321;48.690;9.022;2023-07-20T02:27:12;20.20;76.60
2623;DHT22;1321;48.690;9.022;2023-07-20T02:29:41;20.20;92.10
2623;DHT22;1321;48.690;9.022;2023-07-20T02:32:09;20.20;76.90
2623;DHT22;1321;48.690;9.022;2023-07-20T02:34:37;20.20;77.30
2623;DHT22;1321;48.690;9.022;2023-07-20T02:37:07;20.10;77.40
2623;DHT22;1321;48.690;9.022;2023-07-20T02:39:39;20.10;76.30
2623;DHT22;1321;48.690;9.022;2023-07-20T02:42:07;20.00;75.80
2623;DHT22;1321;48.690;9.022;2023-07-20T02:44:36;19.90;76.00
2623;DHT22;1321;48.690;9.022;2023-07-20T02:47:04;19.90;77.00
2623;DHT22;1321;48.690;9.022;2023-07-20T02:49:33;19.90;77.30
2623;DHT22;1321;48.690;9.022;2023-07-20T02:52:01;19.90;78.50
2623;DHT22;1321;48.690;9.022;2023-07-20T02:54:29;19.90;79.20
2623;DHT22;1321;48.690;9.022;2023-07-20T02:56:59;19.90;80.70
2623;DHT22;1321;48.690;9.022;2023-07-20T02:59:28;19.90;80.00
2623;DHT22;1321;48.690;9.022;2023-07-20T03:01:56;19.90;80.00
2623;DHT22;1321;48.690;9.022;2023-07-20T03:04:26;19.90;79.80
2623;DHT22;1321;48.690;9.022;2023-07-20T03:06:54;19.80;81.00
2623;DHT22;1321;48.690;9.022;2023-07-20T03:09:22;19.80;81.20
2623;DHT22;1321;48.690;9.022;2023-07-20T03:11:51;19.70;82.30
2623;DHT22;1321;48.690;9.022;2023-07-20T03:14:20;19.70;80.50
2623;DHT22;1321;48.690;9.022;2023-07-20T03:16:50;19.70;82.50
2623;DHT22;1321;48.690;9.022;2023-07-20T03:19:18;19.60;83.40
2623;DHT22;1321;48.690;9.022;2023-07-20T03:21:47;19.60;85.00
2623;DHT22;1321;48.690;9.022;2023-07-20T03:24:16;19.60;84.70
2623;DHT22;1321;48.690;9.022;2023-07-20T03:26:45;19.50;86.90
2623;DHT22;1321;48.690;9.022;2023-07-20T03:29:13;19.50;86.10
2623;DHT22;1321;48.690;9.022;2023-07-20T03:31:44;19.50;87.80
2623;DHT22;1321;48.690;9.022;2023-07-20T03:34:12;19.50;87.60
2623;DHT22;1321;48.690;9.022;2023-07-20T03:36:42;19.50;88.70
2623;DHT22;1321;48.690;9.022;2023-07-20T03:39:10;19.40;89.10
2623;DHT22;1321;48.690;9.022;2023-07-20T03:41:38;19.40;90.10
2623;DHT22;1321;48.690;9.022;2023-07-20T03:44:07;19.40;90.90
2623;DHT22;1321;48.690;9.022;2023-07-20T03:46:35;19.40;90.90
2623;DHT22;1321;48.690;9.022;2023-07-20T03:49:05;19.40;91.40
2623;DHT22;1321;48.690;9.022;2023-07-20T03:51:35;19.30;90.40
2623;DHT22;1321;48.690;9.022;2023-07-20T03:54:04;19.30;90.20
2623;DHT22;1321;48.690;9.022;2023-07-20T03:56:32;19.40;91.10
2623;DHT22;1321;48.690;9.022;2023-07-20T03:59:02;19.40;90.90
2623;DHT22;1321;48.690;9.022;2023-07-20T04:01:30;19.40;91.70
2623;DHT22;1321;48.690;9.022;2023-07-20T04:04:07;19.50;92.00
2623;DHT22;1321;48.690;9.022;2023-07-20T04:06:35;19.40;91.40
2623;DHT22;1321;48.690;9.022;2023-07-20T04:09:04;19.40;92.10
2623;DHT22;1321;48.690;9.022;2023-07-20T04:11:32;19.10;91.30
2623;DHT22;1321;48.690;9.022;2023-07-20T04:14:01;19.30;92.80
2623;DHT22;1321;48.690;9.022;2023-07-20T04:16:29;19.40;93.30
2623;DHT22;1321;48.690;9.022;2023-07-20T04:18:57;19.40;93.20
2623;DHT22;1321;48.690;9.022;2023-07-20T04:21:28;19.50;93.80
2623;DHT22;1321;48.690;9.022;2023-07-20T04:23:56;19.50;93.50
2623;DHT22;1321;48.690;9.022;2023-07-20T04:26:24;19.50;94.40
2623;DHT22;1321;48.690;9.022;2023-07-20T04:28:52;19.50;94.30
2623;DHT22;1321;48.690;9.022;2023-07-20T04:31:20;19.60;94.60
2623;DHT22;1321;48.690;9.022;2023-07-20T04:33:49;19.50;94.80
2623;DHT22;1321;48.690;9.022;2023-07-20T04:36:17;19.40;95.00
2623;DHT22;1321;48.690;9.022;2023-07-20T04:38:48;19.50;95.70
2623;DHT22;1321;48.690;9.022;2023-07-20T04:41:16;19.50;96.90
2623;DHT22;1321;48.690;9.022;2023-07-20T04:43:45;19.50;96.50
2623;DHT22;1321;48.690;9.022;2023-07-20T04:46:13;19.50;97.00
2623;DHT22;1321;48.690;9.022;2023-07-20T04:48:41;19.50;97.20
2623;DHT22;1321;48.690;9.022;2023-07-20T04:51:09;19.70;97.80
2623;DHT22;1321;48.690;9.022;2023-07-20T04:53:38;19.70;97.40
2623;DHT22;1321;48.690;9.022;2023-07-20T04:56:08;19.60;98.30
2623;DHT22;1321;48.690;9.022;2023-07-20T04:58:37;19.60;99.90
2623;DHT22;1321;48.690;9.022;2023-07-20T05:01:05;19.60;99.90
2623;DHT22;1321;48.690;9.022;2023-07-20T05:03:33;19.70;99.90
2623;DHT22;1321;48.690;9.022;2023-07-20T05:06:01;19.70;99.90
2623;DHT22;1321;48.690;9.022;2023-07-20T05:08:29;19.70;99.90
2623;DHT22;1321;48.690;9.022;2023-07-20T05:10:59;19.70;99.90
2623;DHT22;1321;48.690;9.022;2023-07-20T05:13:28;19.80;99.90
2623;DHT22;1321;48.690;9.022;2023-07-20T05:15:57;19.80;99.90
2623;DHT22;1321;48.690;9.022;2023-07-20T05:18:25;19.90;99.90
2623;DHT22;1321;48.690;9.022;2023-07-20T05:20:53;19.90;99.90
2623;DHT22;1321;48.690;9.022;2023-07-20T05:23:23;20.00;99.90
2623;DHT22;1321;48.690;9.022;2023-07-20T05:25:54;20.00;99.90
2623;DHT22;1321;48.690;9.022;2023-07-20T05:28:23;20.00;99.90
2623;DHT22;1321;48.690;9.022;2023-07-20T05:30:53;20.00;99.90
2623;DHT22;1321;48.690;9.022;2023-07-20T05:33:21;20.10;99.90
2623;DHT22;1321;48.690;9.022;2023-07-20T05:35:49;20.10;99.90
2623;DHT22;1321;48.690;9.022;2023-07-20T05:38:18;20.10;99.90
2623;DHT22;1321;48.690;9.022;2023-07-20T05:40:46;20.10;99.90
2623;DHT22;1321;48.690;9.022;2023-07-20T05:43:14;20.20;99.90
2623;DHT22;1321;48.690;9.022;2023-07-20T05:45:43;20.30;99.90
2623;DHT22;1321;48.690;9.022;2023-07-20T05:48:13;20.30;99.90
2623;DHT22;1321;48.690;9.022;2023-07-20T05:50:42;20.30;99.90
2623;DHT22;1321;48.690;9.022;2023-07-20T05:53:11;20.30;99.90
2623;DHT22;1321;48.690;9.022;2023-07-20T05:55:39;20.40;99.90
2623;DHT22;1321;48.690;9.022;2023-07-20T05:58:07;20.40;99.90
2623;DHT22;1321;48.690;9.022;2023-07-20T06:00:36;20.40;99.90
2623;DHT22;1321;48.690;9.022;2023-07-20T06:03:04;20.50;99.90
2623;DHT22;1321;48.690;9.022;2023-07-20T06:05:34;20.40;99.90
2623;DHT22;1321;48.690;9.022;2023-07-20T06:08:04;20.50;99.90
2623;DHT22;1321;48.690;9.022;2023-07-20T06:10:34;20.60;99.90
2623;DHT22;1321;48.690;9.022;2023-07-20T06:13:02;20.60;99.90
2623;DHT22;1321;48.690;9.022;2023-07-20T06:15:38;20.60;99.90
2623;DHT22;1321;48.690;9.022;2023-07-20T06:18:08;20.60;99.90
2623;DHT22;1321;48.690;9.022;2023-07-20T06:20:37;20.50;99.90
2623;DHT22;1321;48.690;9.022;2023-07-20T06:23:06;20.60;99.90
2623;DHT22;1321;48.690;9.022;2023-07-20T06:25:34;20.60;99.90
2623;DHT22;1321;48.690;9.022;2023-07-20T06:28:03;20.60;99.90
2623;DHT22;1321;48.690;9.022;2023-07-20T06:30:33;20.60;99.90
2623;DHT22;1321;48.690;9.022;2023-07-20T06:33:02;20.60;99.90
2623;DHT22;1321;48.690;9.022;2023-07-20T06:35:31;20.70;99.90
2623;DHT22;1321;48.690;9.022;2023-07-20T06:38:00;20.70;99.90
2623;DHT22;1321;48.690;9.022;2023-07-20T06:40:33;20.70;99.90
2623;DHT22;1321;48.690;9.022;2023-07-20T06:43:02;20.60;99.90
2623;DHT22;1321;48.690;9.022;2023-07-20T06:45:33;20.70;99.90
2623;DHT22;1321;48.690;9.022;2023-07-20T06:48:01;20.70;99.90
2623;DHT22;1321;48.690;9.022;2023-07-20T06:50:30;20.70;99.90
2623;DHT22;1321;48.690;9.022;2023-07-20T06:53:05;20.80;99.90
2623;DHT22;1321;48.690;9.022;2023-07-20T06:55:36;20.80;99.90
2623;DHT22;1321;48.690;9.022;2023-07-20T06:58:08;21.00;99.90
2623;DHT22;1321;48.690;9.022;2023-07-20T07:00:36;21.00;99.90
2623;DHT22;1321;48.690;9.022;2023-07-20T07:03:05;21.10;99.90
2623;DHT22;1321;48.690;9.022;2023-07-20T07:05:36;21.20;99.90
2623;DHT22;1321;48.690;9.022;2023-07-20T07:08:06;21.20;99.90
2623;DHT22;1321;48.690;9.022;2023-07-20T07:10:36;21.20;99.90
2623;DHT22;1321;48.690;9.022;2023-07-20T07:13:04;21.30;99.90
2623;DHT22;1321;48.690;9.022;2023-07-20T07:15:36;21.30;99.90
2623;DHT22;1321;48.690;9.022;2023-07-20T07:18:05;21.40;99.90
2623;DHT22;1321;48.690;9.022;2023-07-20T07:20:33;21.50;99.90
2623;DHT22;1321;48.690;9.022;2023-07-20T07:23:01;21.60;99.90
2623;DHT22;1321;48.690;9.022;2023-07-20T07:25:31;21.70;99.90
2623;DHT22;1321;48.690;9.022;2023-07-20T07:28:00;21.70;99.90
2623;DHT22;1321;48.690;9.022;2023-07-20T07:30:28;21.80;99.90
2623;DHT22;1321;48.690;9.022;2023-07-20T07:33:00;21.80;99.90
2623;DHT22;1321;48.690;9.022;2023-07-20T07:35:35;21.80;99.90
2623;DHT22;1321;48.690;9.022;2023-07-20T07:38:03;21.80;99.90
2623;DHT22;1321;48.690;9.022;2023-07-20T07:40:53;21.90;99.90
2623;DHT22;1321;48.690;9.022;2023-07-20T07:43:24;21.90;99.90
2623;DHT22;1321;48.690;9.022;2023-07-20T07:45:54;22.00;99.90
2623;DHT22;1321;48.690;9.022;2023-07-20T07:48:22;22.00;99.90
2623;DHT22;1321;48.690;9.022;2023-07-20T07:50:53;22.00;99.90
2623;DHT22;1321;48.690;9.022;2023-07-20T07:53:21;22.00;99.90
2623;DHT22;1321;48.690;9.022;2023-07-20T07:55:54;22.00;99.90
2623;DHT22;1321;48.690;9.022;2023-07-20T07:58:22;22.10;99.90
2623;DHT22;1321;48.690;9.022;2023-07-20T08:00:51;22.10;99.90
2623;DHT22;1321;48.690;9.022;2023-07-20T08:03:19;22.10;99.90
2623;DHT22;1321;48.690;9.022;2023-07-20T08:05:48;22.10;99.90
2623;DHT22;1321;48.690;9.022;2023-07-20T08:08:17;22.10;99.90
2623;DHT22;1321;48.690;9.022;2023-07-20T08:10:46;22.10;99.90
2623;DHT22;1321;48.690;9.022;2023-07-20T08:13:16;22.10;99.90
2623;DHT22;1321;48.690;9.022;2023-07-20T08:15:49;22.20;99.90
2623;DHT22;1321;48.690;9.022;2023-07-20T08:18:18;22.20;99.90
2623;DHT22;1321;48.690;9.022;2023-07-20T08:20:47;22.20;99.90
2623;DHT22;1321;48.690;9.022;2023-07-20T08:23:16;22.30;99.90
2623;DHT22;1321;48.690;9.022;2023-07-20T08:25:44;22.30;99.90
2623;DHT22;1321;48.690;9.022;2023-07-20T08:28:14;22.30;99.90
2623;DHT22;1321;48.690;9.022;2023-07-20T08:30:45;22.40;99.90
2623;DHT22;1321;48.690;9.022;2023-07-20T08:33:16;22.40;99.90
2623;DHT22;1321;48.690;9.022;2023-07-20T08:35:45;22.40;99.90
2623;DHT22;1321;48.690;9.022;2023-07-20T08:38:14;22.30;99.90
2623;DHT22;1321;48.690;9.022;2023-07-20T08:40:44;22.30;99.90
2623;DHT22;1321;48.690;9.022;2023-07-20T08:43:15;22.40;99.90
2623;DHT22;1321;48.690;9.022;2023-07-20T08:45:47;22.40;99.90
2623;DHT22;1321;48.690;9.022;2023-07-20T08:48:17;22.50;99.90
2623;DHT22;1321;48.690;9.022;2023-07-20T08:50:47;22.50;99.90
2623;DHT22;1321;48.690;9.022;2023-07-20T08:53:17;22.40;99.90
2623;DHT22;1321;48.690;9.022;2023-07-20T08:55:45;22.50;99.90
2623;DHT22;1321;48.690;9.022;2023-07-20T08:58:17;22.50;99.90
2623;DHT22;1321;48.690;9.022;2023-07-20T09:00:48;22.40;99.90
2623;DHT22;1321;48.690;9.022;2023-07-20T09:03:18;22.50;99.90
2623;DHT22;1321;48.690;9.022;2023-07-20T09:05:47;22.40;99.90
2623;DHT22;1321;48.690;9.022;2023-07-20T09:08:16;22.40;99.60
2623;DHT22;1321;48.690;9.022;2023-07-20T09:10:45;22.40;99.90
2623;DHT22;1321;48.690;9.022;2023-07-20T09:13:16;22.40;99.40
2623;DHT22;1321;48.690;9.022;2023-07-20T09:15:54;22.50;99.00
2623;DHT22;1321;48.690;9.022;2023-07-20T09:18:26;22.50;99.30
2623;DHT22;1321;48.690;9.022;2023-07-20T09:20:58;22.60;99.90
2623;DHT22;1321;48.690;9.022;2023-07-20T09:23:32;22.60;98.90
2623;DHT22;1321;48.690;9.022;2023-07-20T09:26:01;22.60;99.30
2623;DHT22;1321;48.690;9.022;2023-07-20T09:28:41;22.60;97.70
2623;DHT22;1321;48.690;9.022;2023-07-20T09:31:17;22.60;98.90
2623;DHT22;1321;48.690;9.022;2023-07-20T09:33:46;22.60;98.00
2623;DHT22;1321;48.690;9.022;2023-07-20T09:36:18;22.60;96.50
2623;DHT22;1321;48.690;9.022;2023-07-20T09:39:06;22.60;95.60
2623;DHT22;1321;48.690;9.022;2023-07-20T09:41:41;22.60;96.00
2623;DHT22;1321;48.690;9.022;2023-07-20T09:44:19;22.70;96.00
2623;DHT22;1321;48.690;9.022;2023-07-20T09:46:53;22.80;97.20
2623;DHT22;1321;48.690;9.022;2023-07-20T09:49:25;22.90;97.70
2623;DHT22;1321;48.690;9.022;2023-07-20T09:51:57;23.00;97.60
2623;DHT22;1321;48.690;9.022;2023-07-20T09:54:27;23.00;96.00
2623;DHT22;1321;48.690;9.022;2023-07-20T09:57:02;23.10;97.00
2623;DHT22;1321;48.690;9.022;2023-07-20T09:59:31;23.10;94.50
2623;DHT22;1321;48.690;9.022;2023-07-20T10:02:02;23.10;93.10
2623;DHT22;1321;48.690;9.022;2023-07-20T10:04:34;23.10;94.50
2623;DHT22;1321;48.690;9.022;2023-07-20T10:07:10;23.20;95.00
2623;DHT22;1321;48.690;9.022;2023-07-20T10:09:40;23.20;93.70
2623;DHT22;1321;48.690;9.022;2023-07-20T10:12:09;23.20;94.40
2623;DHT22;1321;48.690;9.022;2023-07-20T10:14:52;23.20;94.10
2623;DHT22;1321;48.690;9.022;2023-07-20T10:17:27;23.20;95.00
2623;DHT22;1321;48.690;9.022;2023-07-20T10:19:59;23.40;97.00
2623;DHT22;1321;48.690;9.022;2023-07-20T10:22:33;23.30;95.00
2623;DHT22;1321;48.690;9.022;2023-07-20T10:25:08;23.40;95.40
2623;DHT22;1321;48.690;9.022;2023-07-20T10:27:38;23.40;93.90
2623;DHT22;1321;48.690;9.022;2023-07-20T10:30:07;23.50;94.00
2623;DHT22;1321;48.690;9.022;2023-07-20T10:32:38;23.40;92.40
2623;DHT22;1321;48.690;9.022;2023-07-20T10:35:12;23.50;92.00
2623;DHT22;1321;48.690;9.022;2023-07-20T10:37:52;23.50;92.80
2623;DHT22;1321;48.690;9.022;2023-07-20T10:40:31;23.50;91.40
2623;DHT22;1321;48.690;9.022;2023-07-20T10:43:04;23.60;89.80
2623;DHT22;1321;48.690;9.022;2023-07-20T10:45:40;23.50;88.50
2623;DHT22;1321;48.690;9.022;2023-07-20T10:48:17;23.60;91.20
2623;DHT22;1321;48.690;9.022;2023-07-20T10:51:10;23.70;90.90
2623;DHT22;1321;48.690;9.022;2023-07-20T10:53:39;23.70;91.10
2623;DHT22;1321;48.690;9.022;2023-07-20T10:56:08;23.70;93.10
2623;DHT22;1321;48.690;9.022;2023-07-20T10:58:39;23.80;93.10
2623;DHT22;1321;48.690;9.022;2023-07-20T11:01:13;23.90;94.10
2623;DHT22;1321;48.690;9.022;2023-07-20T11:03:50;23.90;92.60
2623;DHT22;1321;48.690;9.022;2023-07-20T11:06:32;24.00;93.40
2623;DHT22;1321;48.690;9.022;2023-07-20T11:09:06;24.00;91.20
2623;DHT22;1321;48.690;9.022;2023-07-20T11:11:36;24.00;89.90
2623;DHT22;1321;48.690;9.022;2023-07-20T11:14:06;24.00;89.90
2623;DHT22;1321;48.690;9.022;2023-07-20T11:16:36;24.00;90.00
2623;DHT22;1321;48.690;9.022;2023-07-20T11:19:06;24.00;89.10
2623;DHT22;1321;48.690;9.022;2023-07-20T11:22:05;24.10;89.10
2623;DHT22;1321;48.690;9.022;2023-07-20T11:24:40;24.10;87.20
2623;DHT22;1321;48.690;9.022;2023-07-20T11:27:20;24.00;81.70
2623;DHT22;1321;48.690;9.022;2023-07-20T11:29:54;24.00;82.50
2623;DHT22;1321;48.690;9.022;2023-07-20T11:32:23;24.00;81.90
2623;DHT22;1321;48.690;9.022;2023-07-20T11:34:53;24.00;81.40
2623;DHT22;1321;48.690;9.022;2023-07-20T11:37:25;24.00;80.80
2623;DHT22;1321;48.690;9.022;2023-07-20T11:39:56;24.10;83.20
2623;DHT22;1321;48.690;9.022;2023-07-20T11:42:28;24.20;86.40
2623;DHT22;1321;48.690;9.022;2023-07-20T11:45:02;24.30;87.10
2623;DHT22;1321;48.690;9.022;2023-07-20T11:47:32;24.30;86.40
2623;DHT22;1321;48.690;9.022;2023-07-20T11:50:05;24.40;86.60
2623;DHT22;1321;48.690;9.022;2023-07-20T11:52:34;24.40;86.50
2623;DHT22;1321;48.690;9.022;2023-07-20T11:55:04;24.40;85.20
2623;DHT22;1321;48.690;9.022;2023-07-20T11:57:33;24.30;83.70
2623;DHT22;1321;48.690;9.022;2023-07-20T12:00:06;24.40;84.30
2623;DHT22;1321;48.690;9.022;2023-07-20T12:02:38;24.40;84.30
2623;DHT22;1321;48.690;9.022;2023-07-20T12:05:09;24.50;87.60
2623;DHT22;1321;48.690;9.022;2023-07-20T12:07:39;24.50;86.00
2623;DHT22;1321;48.690;9.022;2023-07-20T12:10:10;24.50;84.80
2623;DHT22;1321;48.690;9.022;2023-07-20T12:12:39;24.50;84.60
2623;DHT22;1321;48.690;9.022;2023-07-20T12:15:15;24.50;83.30
2623;DHT22;1321;48.690;9.022;2023-07-20T12:17:45;24.50;84.30
2623;DHT22;1321;48.690;9.022;2023-07-20T12:20:25;24.50;82.60
2623;DHT22;1321;48.690;9.022;2023-07-20T12:22:56;24.50;80.80
2623;DHT22;1321;48.690;9.022;2023-07-20T12:25:42;24.40;80.80
2623;DHT22;1321;48.690;9.022;2023-07-20T12:28:12;24.40;83.30
2623;DHT22;1321;48.690;9.022;2023-07-20T12:30:42;24.50;83.80
2623;DHT22;1321;48.690;9.022;2023-07-20T12:33:12;24.50;87.20
2623;DHT22;1321;48.690;9.022;2023-07-20T12:35:44;24.60;83.60
2623;DHT22;1321;48.690;9.022;2023-07-20T12:38:17;24.70;86.20
2623;DHT22;1321;48.690;9.022;2023-07-20T12:40:48;24.70;88.10
2623;DHT22;1321;48.690;9.022;2023-07-20T12:43:16;24.80;88.30
2623;DHT22;1321;48.690;9.022;2023-07-20T12:45:47;24.80;90.00
2623;DHT22;1321;48.690;9.022;2023-07-20T12:48:18;24.80;89.10
2623;DHT22;1321;48.690;9.022;2023-07-20T12:50:48;24.80;87.80
2623;DHT22;1321;48.690;9.022;2023-07-20T12:53:17;24.90;89.70
2623;DHT22;1321;48.690;9.022;2023-07-20T12:55:45;24.80;85.70
2623;DHT22;1321;48.690;9.022;2023-07-20T12:58:19;24.80;86.90
2623;DHT22;1321;48.690;9.022;2023-07-20T13:00:47;24.80;82.00
2623;DHT22;1321;48.690;9.022;2023-07-20T13:03:19;24.80;84.70
2623;DHT22;1321;48.690;9.022;2023-07-20T13:05:55;24.90;84.30
2623;DHT22;1321;48.690;9.022;2023-07-20T13:08:31;25.00;83.50
2623;DHT22;1321;48.690;9.022;2023-07-20T13:11:02;25.00;84.10
2623;DHT22;1321;48.690;9.022;2023-07-20T13:13:37;25.00;82.00
2623;DHT22;1321;48.690;9.022;2023-07-20T13:16:06;25.00;81.40
2623;DHT22;1321;48.690;9.022;2023-07-20T13:18:34;25.00;80.40
2623;DHT22;1321;48.690;9.022;2023-07-20T13:21:04;25.00;79.10
2623;DHT22;1321;48.690;9.022;2023-07-20T13:23:38;25.00;78.80
2623;DHT22;1321;48.690;9.022;2023-07-20T13:26:06;25.00;80.60
2623;DHT22;1321;48.690;9.022;2023-07-20T13:28:39;25.00;82.80
2623;DHT22;1321;48.690;9.022;2023-07-20T13:31:08;25.00;82.50
2623;DHT22;1321;48.690;9.022;2023-07-20T13:33:40;25.10;80.80
2623;DHT22;1321;48.690;9.022;2023-07-20T13:36:09;25.10;83.10
2623;DHT22;1321;48.690;9.022;2023-07-20T13:38:38;25.10;81.60
2623;DHT22;1321;48.690;9.022;2023-07-20T13:41:09;25.20;82.00
2623;DHT22;1321;48.690;9.022;2023-07-20T13:43:41;25.20;83.70
2623;DHT22;1321;48.690;9.022;2023-07-20T13:46:09;25.20;81.60
2623;DHT22;1321;48.690;9.022;2023-07-20T13:48:43;25.30;81.40
2623;DHT22;1321;48.690;9.022;2023-07-20T13:51:15;25.20;78.80
2623;DHT22;1321;48.690;9.022;2023-07-20T13:53:53;25.20;80.60
2623;DHT22;1321;48.690;9.022;2023-07-20T13:56:21;25.20;83.00
2623;DHT22;1321;48.690;9.022;2023-07-20T13:58:52;25.30;78.60
2623;DHT22;1321;48.690;9.022;2023-07-20T14:01:20;25.30;80.50
2623;DHT22;1321;48.690;9.022;2023-07-20T14:03:56;25.30;82.60
2623;DHT22;1321;48.690;9.022;2023-07-20T14:06:32;25.30;80.70
2623;DHT22;1321;48.690;9.022;2023-07-20T14:09:01;25.20;78.50
2623;DHT22;1321;48.690;9.022;2023-07-20T14:11:33;25.20;83.30
2623;DHT22;1321;48.690;9.022;2023-07-20T14:14:05;25.30;81.80
2623;DHT22;1321;48.690;9.022;2023-07-20T14:16:35;25.30;78.50
2623;DHT22;1321;48.690;9.022;2023-07-20T14:19:07;25.30;83.50
2623;DHT22;1321;48.690;9.022;2023-07-20T14:21:40;25.40;81.70
2623;DHT22;1321;48.690;9.022;2023-07-20T14:24:11;25.30;97.50
2623;DHT22;1321;48.690;9.022;2023-07-20T14:26:45;25.40;82.30
2623;DHT22;1321;48.690;9.022;2023-07-20T14:29:22;25.40;87.40
2623;DHT22;1321;48.690;9.022;2023-07-20T14:31:54;25.40;83.80
2623;DHT22;1321;48.690;9.022;2023-07-20T14:34:26;25.40;90.20
2623;DHT22;1321;48.690;9.022;2023-07-20T14:37:01;25.40;84.80
2623;DHT22;1321;48.690;9.022;2023-07-20T14:39:31;25.40;82.40
2623;DHT22;1321;48.690;9.022;2023-07-20T14:41:59;25.40;95.70
2623;DHT22;1321;48.690;9.022;2023-07-20T14:44:28;25.40;85.30
2623;DHT22;1321;48.690;9.022;2023-07-20T14:47:04;25.40;87.10
2623;DHT22;1321;48.690;9.022;2023-07-20T14:49:39;25.40;85.00
2623;DHT22;1321;48.690;9.022;2023-07-20T14:52:09;25.40;87.50
2623;DHT22;1321;48.690;9.022;2023-07-20T14:54:42;25.40;87.90
2623;DHT22;1321;48.690;9.022;2023-07-20T14:57:11;25.40;90.20
2623;DHT22;1321;48.690;9.022;2023-07-20T14:59:42;25.40;85.10
2623;DHT22;1321;48.690;9.022;2023-07-20T15:02:13;25.40;81.80
2623;DHT22;1321;48.690;9.022;2023-07-20T15:04:46;25.40;83.80
2623;DHT22;1321;48.690;9.022;2023-07-20T15:07:20;25.40;80.30
2623;DHT22;1321;48.690;9.022;2023-07-20T15:09:49;25.30;80.40
2623;DHT22;1321;48.690;9.022;2023-07-20T15:12:18;25.30;79.80
2623;DHT22;1321;48.690;9.022;2023-07-20T15:15:03;25.30;78.50
2623;DHT22;1321;48.690;9.022;2023-07-20T15:17:32;25.30;76.30
2623;DHT22;1321;48.690;9.022;2023-07-20T15:20:04;25.20;74.60
2623;DHT22;1321;48.690;9.022;2023-07-20T15:22:35;25.10;74.10
2623;DHT22;1321;48.690;9.022;2023-07-20T15:25:06;25.10;74.00
2623;DHT22;1321;48.690;9.022;2023-07-20T15:27:35;25.20;79.60
2623;DHT22;1321;48.690;9.022;2023-07-20T15:30:06;25.20;83.70
2623;DHT22;1321;48.690;9.022;2023-07-20T15:32:35;25.20;93.10
2623;DHT22;1321;48.690;9.022;2023-07-20T15:35:07;25.30;81.80
2623;DHT22;1321;48.690;9.022;2023-07-20T15:37:36;25.40;81.80
2623;DHT22;1321;48.690;9.022;2023-07-20T15:40:06;25.40;83.90
2623;DHT22;1321;48.690;9.022;2023-07-20T15:42:35;25.40;83.90
2623;DHT22;1321;48.690;9.022;2023-07-20T15:45:05;25.40;85.10
2623;DHT22;1321;48.690;9.022;2023-07-20T15:47:33;25.40;82.50
2623;DHT22;1321;48.690;9.022;2023-07-20T15:50:02;25.40;81.40
2623;DHT22;1321;48.690;9.022;2023-07-20T15:52:31;25.40;79.00
2623;DHT22;1321;48.690;9.022;2023-07-20T15:55:00;25.40;81.30
2623;DHT22;1321;48.690;9.022;2023-07-20T15:57:31;25.40;77.80
2623;DHT22;1321;48.690;9.022;2023-07-20T16:00:00;25.40;77.00
2623;DHT22;1321;48.690;9.022;2023-07-20T16:02:32;25.40;75.90
2623;DHT22;1321;48.690;9.022;2023-07-20T16:05:01;25.40;77.60
2623;DHT22;1321;48.690;9.022;2023-07-20T16:07:37;25.30;76.30
2623;DHT22;1321;48.690;9.022;2023-07-20T16:10:11;25.30;76.60
2623;DHT22;1321;48.690;9.022;2023-07-20T16:12:43;25.20;71.30
2623;DHT22;1321;48.690;9.022;2023-07-20T16:15:16;25.20;71.50
2623;DHT22;1321;48.690;9.022;2023-07-20T16:18:01;25.20;75.50
2623;DHT22;1321;48.690;9.022;2023-07-20T16:20:30;25.20;74.20
2623;DHT22;1321;48.690;9.022;2023-07-20T16:22:58;25.20;72.90
2623;DHT22;1321;48.690;9.022;2023-07-20T16:25:31;25.20;71.00
2623;DHT22;1321;48.690;9.022;2023-07-20T16:28:02;25.20;71.10